sensor_id;sensor_type;location;lat;lon;timestamp;pressure;altitude;pressure_sealevel;temperature;humidity
77077;BME280;66003;52.286;104.306;2024-03-23T00:53:51;96845.88;;;14.55;12.38
77077;BME280;66003;52.286;104.306;2024-03-23T00:56:18;96849.19;;;14.85;12.41
77077;BME280;66003;52.286;104.306;2024-03-23T00:58:44;96845.59;;;15.18;12.53
77077;BME280;66003;52.286;104.306;2024-03-23T01:01:10;96843.25;;;15.68;11.95
77077;BME280;66003;52.286;104.306;2024-03-23T01:03:36;96854.88;;;15.53;11.76
77077;BME280;66003;52.286;104.306;2024-03-23T01:06:03;96850.97;;;15.54;11.93
77077;BME280;66003;52.286;104.306;2024-03-23T01:08:32;96841.75;;;15.71;11.97
77077;BME280;66003;52.286;104.306;2024-03-23T01:11:02;96843.34;;;16.40;11.08
77077;BME280;66003;52.286;104.306;2024-03-23T01:13:28;96856.88;;;16.80;11.38
77077;BME280;66003;52.286;104.306;2024-03-23T01:15:56;96842.78;;;17.41;10.65
77077;BME280;66003;52.286;104.306;2024-03-23T01:18:23;96849.06;;;17.96;10.67
77077;BME280;66003;52.286;104.306;2024-03-23T01:20:52;96853.16;;;18.25;10.52
77077;BME280;66003;52.286;104.306;2024-03-23T01:23:18;96846.56;;;18.68;9.89
77077;BME280;66003;52.286;104.306;2024-03-23T01:25:51;96845.50;;;18.99;9.40
77077;BME280;66003;52.286;104.306;2024-03-23T01:28:19;96849.25;;;19.36;9.91
77077;BME280;66003;52.286;104.306;2024-03-23T01:30:45;96853.44;;;19.53;9.50
77077;BME280;66003;52.286;104.306;2024-03-23T01:33:12;96851.50;;;19.53;9.99
77077;BME280;66003;52.286;104.306;2024-03-23T01:35:38;96854.97;;;19.50;9.89
77077;BME280;66003;52.286;104.306;2024-03-23T01:38:04;96850.69;;;19.53;9.57
77077;BME280;66003;52.286;104.306;2024-03-23T01:40:31;96851.72;;;19.71;9.39
77077;BME280;66003;52.286;104.306;2024-03-23T01:43:03;96847.16;;;19.82;9.20
77077;BME280;66003;52.286;104.306;2024-03-23T01:45:30;96854.47;;;20.31;9.30
77077;BME280;66003;52.286;104.306;2024-03-23T01:47:56;96852.44;;;20.61;9.15
77077;BME280;66003;52.286;104.306;2024-03-23T01:50:23;96857.75;;;20.44;9.03
77077;BME280;66003;52.286;104.306;2024-03-23T01:52:53;96860.69;;;21.02;8.83
77077;BME280;66003;52.286;104.306;2024-03-23T01:55:20;96847.25;;;21.37;8.80
77077;BME280;66003;52.286;104.306;2024-03-23T01:57:49;96845.84;;;21.10;8.46
77077;BME280;66003;52.286;104.306;2024-03-23T02:00:16;96858.59;;;20.85;8.89
77077;BME280;66003;52.286;104.306;2024-03-23T02:02:45;96848.38;;;21.33;8.99
77077;BME280;66003;52.286;104.306;2024-03-23T02:05:12;96845.69;;;21.98;8.96
77077;BME280;66003;52.286;104.306;2024-03-23T02:07:40;96850.47;;;22.12;8.66
77077;BME280;66003;52.286;104.306;2024-03-23T02:10:10;96835.72;;;21.18;8.45
77077;BME280;66003;52.286;104.306;2024-03-23T02:12:39;96840.63;;;20.94;8.92
77077;BME280;66003;52.286;104.306;2024-03-23T02:15:06;96846.78;;;20.81;8.57
77077;BME280;66003;52.286;104.306;2024-03-23T02:17:35;96848.31;;;20.78;8.54
77077;BME280;66003;52.286;104.306;2024-03-23T02:20:03;96841.25;;;21.21;8.85
77077;BME280;66003;52.286;104.306;2024-03-23T02:22:38;96841.06;;;21.51;7.96
77077;BME280;66003;52.286;104.306;2024-03-23T02:25:05;96846.59;;;21.55;8.73
77077;BME280;66003;52.286;104.306;2024-03-23T02:27:32;96849.19;;;21.33;8.99
77077;BME280;66003;52.286;104.306;2024-03-23T02:30:00;96855.25;;;20.65;8.97
77077;BME280;66003;52.286;104.306;2024-03-23T02:32:28;96848.13;;;20.27;9.15
77077;BME280;66003;52.286;104.306;2024-03-23T02:34:54;96846.94;;;20.24;9.22
77077;BME280;66003;52.286;104.306;2024-03-23T02:37:20;96851.66;;;20.24;8.59
77077;BME280;66003;52.286;104.306;2024-03-23T02:39:46;96848.72;;;19.27;8.83
77077;BME280;66003;52.286;104.306;2024-03-23T02:42:12;96847.28;;;18.65;8.99
77077;BME280;66003;52.286;104.306;2024-03-23T02:44:39;96840.25;;;16.41;9.75
77077;BME280;66003;52.286;104.306;2024-03-23T02:47:05;96848.00;;;12.66;11.55
77077;BME280;66003;52.286;104.306;2024-03-23T02:49:31;96851.56;;;9.96;13.09
77077;BME280;66003;52.286;104.306;2024-03-23T02:51:57;96850.75;;;9.24;14.41
77077;BME280;66003;52.286;104.306;2024-03-23T02:54:23;96842.97;;;9.94;14.06
77077;BME280;66003;52.286;104.306;2024-03-23T02:56:49;96837.41;;;12.01;13.50
77077;BME280;66003;52.286;104.306;2024-03-23T02:59:15;96834.28;;;14.46;12.22
77077;BME280;66003;52.286;104.306;2024-03-23T03:01:41;96833.22;;;15.08;11.50
77077;BME280;66003;52.286;104.306;2024-03-23T03:04:07;96840.44;;;15.65;10.70
77077;BME280;66003;52.286;104.306;2024-03-23T03:06:33;96836.88;;;14.10;11.71
77077;BME280;66003;52.286;104.306;2024-03-23T03:08:59;96833.78;;;12.69;11.97
77077;BME280;66003;52.286;104.306;2024-03-23T03:11:25;96842.66;;;11.37;12.66
77077;BME280;66003;52.286;104.306;2024-03-23T03:13:52;96830.78;;;11.07;13.09
77077;BME280;66003;52.286;104.306;2024-03-23T03:16:18;96818.91;;;9.84;13.63
77077;BME280;66003;52.286;104.306;2024-03-23T03:18:44;96817.91;;;8.95;14.59
77077;BME280;66003;52.286;104.306;2024-03-23T03:21:12;96819.47;;;8.27;14.73
77077;BME280;66003;52.286;104.306;2024-03-23T03:23:38;96817.25;;;7.51;15.49
77077;BME280;66003;52.286;104.306;2024-03-23T03:26:05;96824.75;;;6.68;15.74
77077;BME280;66003;52.286;104.306;2024-03-23T03:28:34;96820.50;;;5.81;16.54
77077;BME280;66003;52.286;104.306;2024-03-23T03:31:00;96812.13;;;5.09;17.64
77077;BME280;66003;52.286;104.306;2024-03-23T03:33:27;96815.09;;;4.38;17.83
77077;BME280;66003;52.286;104.306;2024-03-23T03:35:54;96813.03;;;3.79;17.94
77077;BME280;66003;52.286;104.306;2024-03-23T03:38:20;96812.75;;;3.66;18.03
77077;BME280;66003;52.286;104.306;2024-03-23T03:40:48;96807.00;;;2.91;18.77
77077;BME280;66003;52.286;104.306;2024-03-23T03:43:14;96810.31;;;2.41;20.14
77077;BME280;66003;52.286;104.306;2024-03-23T03:45:40;96809.84;;;2.07;19.46
77077;BME280;66003;52.286;104.306;2024-03-23T03:48:07;96805.97;;;1.51;20.25
77077;BME280;66003;52.286;104.306;2024-03-23T03:50:33;96805.19;;;1.23;20.44
77077;BME280;66003;52.286;104.306;2024-03-23T03:53:00;96799.28;;;1.21;20.29
77077;BME280;66003;52.286;104.306;2024-03-23T03:55:26;96796.88;;;1.20;20.51
77077;BME280;66003;52.286;104.306;2024-03-23T03:57:53;96795.59;;;1.22;20.94
77077;BME280;66003;52.286;104.306;2024-03-23T04:00:19;96803.22;;;1.41;19.72
77077;BME280;66003;52.286;104.306;2024-03-23T04:02:46;96794.66;;;1.33;21.04
77077;BME280;66003;52.286;104.306;2024-03-23T04:05:12;96805.53;;;1.32;21.03
77077;BME280;66003;52.286;104.306;2024-03-23T04:07:38;96792.59;;;1.14;21.16
77077;BME280;66003;52.286;104.306;2024-03-23T04:10:05;96796.03;;;1.14;21.08
77077;BME280;66003;52.286;104.306;2024-03-23T04:12:34;96792.59;;;1.14;21.15
77077;BME280;66003;52.286;104.306;2024-03-23T04:15:00;96779.91;;;1.26;21.56
77077;BME280;66003;52.286;104.306;2024-03-23T04:17:31;96786.78;;;1.49;21.90
77077;BME280;66003;52.286;104.306;2024-03-23T04:20:00;96782.63;;;1.63;21.10
77077;BME280;66003;52.286;104.306;2024-03-23T04:22:30;96775.44;;;1.63;21.39
77077;BME280;66003;52.286;104.306;2024-03-23T04:24:56;96774.88;;;1.61;21.27
77077;BME280;66003;52.286;104.306;2024-03-23T04:27:23;96776.66;;;1.88;20.79
77077;BME280;66003;52.286;104.306;2024-03-23T04:29:50;96778.50;;;1.82;20.63
77077;BME280;66003;52.286;104.306;2024-03-23T04:32:16;96776.97;;;1.91;21.08
77077;BME280;66003;52.286;104.306;2024-03-23T04:34:44;96776.28;;;1.69;21.56
77077;BME280;66003;52.286;104.306;2024-03-23T04:37:11;96775.50;;;1.74;20.93
77077;BME280;66003;52.286;104.306;2024-03-23T04:39:38;96769.09;;;1.69;21.35
77077;BME280;66003;52.286;104.306;2024-03-23T04:42:05;96761.34;;;1.68;21.54
77077;BME280;66003;52.286;104.306;2024-03-23T04:44:31;96758.13;;;1.61;21.68
77077;BME280;66003;52.286;104.306;2024-03-23T04:46:58;96756.75;;;1.58;22.15
77077;BME280;66003;52.286;104.306;2024-03-23T04:49:24;96748.78;;;1.58;21.54
77077;BME280;66003;52.286;104.306;2024-03-23T04:51:50;96742.84;;;1.51;21.85
77077;BME280;66003;52.286;104.306;2024-03-23T04:54:17;96742.19;;;1.71;20.53
77077;BME280;66003;52.286;104.306;2024-03-23T04:56:43;96741.06;;;1.62;21.48
77077;BME280;66003;52.286;104.306;2024-03-23T04:59:09;96730.56;;;1.45;22.16
77077;BME280;66003;52.286;104.306;2024-03-23T05:01:35;96724.19;;;1.51;21.20
77077;BME280;66003;52.286;104.306;2024-03-23T05:04:04;96727.91;;;1.50;21.62
77077;BME280;66003;52.286;104.306;2024-03-23T05:06:31;96720.22;;;1.54;21.09
77077;BME280;66003;52.286;104.306;2024-03-23T05:08:57;96732.34;;;1.35;21.90
77077;BME280;66003;52.286;104.306;2024-03-23T05:11:23;96730.41;;;1.30;21.95
77077;BME280;66003;52.286;104.306;2024-03-23T05:13:49;96719.84;;;1.40;21.71
77077;BME280;66003;52.286;104.306;2024-03-23T05:16:15;96720.78;;;1.56;20.69
77077;BME280;66003;52.286;104.306;2024-03-23T05:18:41;96713.09;;;1.64;21.13
77077;BME280;66003;52.286;104.306;2024-03-23T05:21:08;96706.69;;;1.60;21.72
77077;BME280;66003;52.286;104.306;2024-03-23T05:23:34;96714.19;;;1.68;21.59
77077;BME280;66003;52.286;104.306;2024-03-23T05:26:01;96702.13;;;1.56;22.23
77077;BME280;66003;52.286;104.306;2024-03-23T05:28:27;96696.25;;;1.54;21.09
77077;BME280;66003;52.286;104.306;2024-03-23T05:30:54;96707.88;;;1.38;21.09
77077;BME280;66003;52.286;104.306;2024-03-23T05:33:20;96702.97;;;1.24;20.96
77077;BME280;66003;52.286;104.306;2024-03-23T05:35:47;96698.44;;;1.25;21.07
77077;BME280;66003;52.286;104.306;2024-03-23T05:38:21;96705.06;;;1.22;21.21
77077;BME280;66003;52.286;104.306;2024-03-23T05:40:57;96700.03;;;1.26;20.95
77077;BME280;66003;52.286;104.306;2024-03-23T05:43:24;96695.72;;;1.20;21.30
77077;BME280;66003;52.286;104.306;2024-03-23T05:45:57;96693.22;;;1.35;21.09
77077;BME280;66003;52.286;104.306;2024-03-23T05:48:24;96687.09;;;1.40;21.14
77077;BME280;66003;52.286;104.306;2024-03-23T05:50:51;96691.38;;;1.41;21.07
77077;BME280;66003;52.286;104.306;2024-03-23T05:53:18;96686.38;;;1.17;21.30
77077;BME280;66003;52.286;104.306;2024-03-23T05:55:47;96678.13;;;1.19;21.49
77077;BME280;66003;52.286;104.306;2024-03-23T05:58:15;96670.22;;;1.29;21.46
77077;BME280;66003;52.286;104.306;2024-03-23T06:00:42;96662.88;;;1.36;21.46
77077;BME280;66003;52.286;104.306;2024-03-23T06:03:09;96661.25;;;1.35;21.59
77077;BME280;66003;52.286;104.306;2024-03-23T06:05:37;96652.53;;;1.50;21.44
77077;BME280;66003;52.286;104.306;2024-03-23T06:08:04;96658.47;;;1.62;21.18
77077;BME280;66003;52.286;104.306;2024-03-23T06:10:30;96647.94;;;1.82;20.82
77077;BME280;66003;52.286;104.306;2024-03-23T06:12:57;96653.31;;;1.92;21.23
77077;BME280;66003;52.286;104.306;2024-03-23T06:15:25;96644.28;;;2.03;21.31
77077;BME280;66003;52.286;104.306;2024-03-23T06:17:53;96641.91;;;2.12;20.89
77077;BME280;66003;52.286;104.306;2024-03-23T06:20:19;96631.81;;;2.19;21.35
77077;BME280;66003;52.286;104.306;2024-03-23T06:22:45;96629.97;;;2.30;20.66
77077;BME280;66003;52.286;104.306;2024-03-23T06:25:11;96630.72;;;2.15;20.50
77077;BME280;66003;52.286;104.306;2024-03-23T06:27:38;96631.47;;;1.95;20.86
77077;BME280;66003;52.286;104.306;2024-03-23T06:30:07;96628.00;;;1.95;20.91
77077;BME280;66003;52.286;104.306;2024-03-23T06:32:34;96612.25;;;1.93;21.04
77077;BME280;66003;52.286;104.306;2024-03-23T06:35:00;96617.59;;;1.93;20.91
77077;BME280;66003;52.286;104.306;2024-03-23T06:37:31;96611.97;;;1.85;21.28
77077;BME280;66003;52.286;104.306;2024-03-23T06:39:57;96606.97;;;2.03;20.90
77077;BME280;66003;52.286;104.306;2024-03-23T06:42:23;96605.38;;;2.08;20.69
77077;BME280;66003;52.286;104.306;2024-03-23T06:44:49;96602.47;;;2.14;20.87
77077;BME280;66003;52.286;104.306;2024-03-23T06:47:16;96597.16;;;2.19;20.90
77077;BME280;66003;52.286;104.306;2024-03-23T06:49:42;96597.72;;;2.41;20.61
77077;BME280;66003;52.286;104.306;2024-03-23T06:52:08;96596.09;;;2.25;20.66
77077;BME280;66003;52.286;104.306;2024-03-23T06:54:34;96587.53;;;2.23;21.25
77077;BME280;66003;52.286;104.306;2024-03-23T06:57:00;96590.75;;;2.25;20.95
77077;BME280;66003;52.286;104.306;2024-03-23T06:59:27;96592.09;;;2.38;20.69
77077;BME280;66003;52.286;104.306;2024-03-23T07:01:53;96588.09;;;2.46;20.63
77077;BME280;66003;52.286;104.306;2024-03-23T07:04:19;96587.84;;;2.52;20.17
77077;BME280;66003;52.286;104.306;2024-03-23T07:06:45;96581.19;;;2.75;20.32
77077;BME280;66003;52.286;104.306;2024-03-23T07:09:12;96574.00;;;2.75;20.30
77077;BME280;66003;52.286;104.306;2024-03-23T07:11:38;96569.19;;;2.77;20.19
77077;BME280;66003;52.286;104.306;2024-03-23T07:14:04;96568.66;;;2.55;20.40
77077;BME280;66003;52.286;104.306;2024-03-23T07:16:30;96564.66;;;2.53;20.50
77077;BME280;66003;52.286;104.306;2024-03-23T07:18:57;96557.44;;;2.58;20.58
77077;BME280;66003;52.286;104.306;2024-03-23T07:21:23;96553.69;;;2.69;20.29
77077;BME280;66003;52.286;104.306;2024-03-23T07:23:49;96555.84;;;2.77;20.18
77077;BME280;66003;52.286;104.306;2024-03-23T07:26:15;96548.09;;;2.86;20.15
77077;BME280;66003;52.286;104.306;2024-03-23T07:28:43;96549.69;;;2.82;20.31
77077;BME280;66003;52.286;104.306;2024-03-23T07:31:12;96545.69;;;2.90;20.37
77077;BME280;66003;52.286;104.306;2024-03-23T07:33:46;96545.41;;;2.86;20.24
77077;BME280;66003;52.286;104.306;2024-03-23T07:36:12;96543.75;;;3.15;20.09
77077;BME280;66003;52.286;104.306;2024-03-23T07:38:41;96543.25;;;3.03;19.61
77077;BME280;66003;52.286;104.306;2024-03-23T07:41:09;96542.19;;;2.94;19.64
77077;BME280;66003;52.286;104.306;2024-03-23T07:43:38;96528.03;;;3.14;19.78
77077;BME280;66003;52.286;104.306;2024-03-23T07:46:06;96520.56;;;3.21;20.01
77077;BME280;66003;52.286;104.306;2024-03-23T07:48:33;96521.13;;;3.03;19.73
77077;BME280;66003;52.286;104.306;2024-03-23T07:51:04;96517.34;;;3.09;19.51
77077;BME280;66003;52.286;104.306;2024-03-23T07:53:31;96511.47;;;3.07;19.85
77077;BME280;66003;52.286;104.306;2024-03-23T07:56:03;96501.59;;;3.12;19.58
77077;BME280;66003;52.286;104.306;2024-03-23T07:58:29;96508.81;;;3.22;19.30
77077;BME280;66003;52.286;104.306;2024-03-23T08:00:56;96502.31;;;3.43;19.37
77077;BME280;66003;52.286;104.306;2024-03-23T08:03:23;96499.56;;;3.59;19.26
77077;BME280;66003;52.286;104.306;2024-03-23T08:05:49;96499.34;;;3.50;18.88
77077;BME280;66003;52.286;104.306;2024-03-23T08:08:15;96491.41;;;3.35;19.29
77077;BME280;66003;52.286;104.306;2024-03-23T08:10:51;96495.41;;;3.37;19.07
77077;BME280;66003;52.286;104.306;2024-03-23T08:13:18;96497.00;;;3.38;18.71
77077;BME280;66003;52.286;104.306;2024-03-23T08:15:44;96491.56;;;3.59;18.61
77077;BME280;66003;52.286;104.306;2024-03-23T08:18:11;96490.50;;;3.55;18.71
77077;BME280;66003;52.286;104.306;2024-03-23T08:20:38;96493.22;;;3.49;18.27
77077;BME280;66003;52.286;104.306;2024-03-23T08:23:08;96475.31;;;3.40;18.41
77077;BME280;66003;52.286;104.306;2024-03-23T08:25:35;96479.09;;;3.34;18.39
77077;BME280;66003;52.286;104.306;2024-03-23T08:28:01;96464.38;;;3.41;18.49
77077;BME280;66003;52.286;104.306;2024-03-23T08:30:28;96467.78;;;3.57;18.00
77077;BME280;66003;52.286;104.306;2024-03-23T08:32:55;96465.59;;;3.64;18.16
77077;BME280;66003;52.286;104.306;2024-03-23T08:35:21;96469.88;;;3.65;17.93
77077;BME280;66003;52.286;104.306;2024-03-23T08:37:47;96468.03;;;3.61;17.89
77077;BME280;66003;52.286;104.306;2024-03-23T08:40:13;96469.03;;;3.70;17.61
77077;BME280;66003;52.286;104.306;2024-03-23T08:42:39;96466.84;;;3.77;17.66
77077;BME280;66003;52.286;104.306;2024-03-23T08:45:05;96462.34;;;3.72;17.72
77077;BME280;66003;52.286;104.306;2024-03-23T08:47:36;96460.25;;;3.64;17.65
77077;BME280;66003;52.286;104.306;2024-03-23T08:50:02;96457.34;;;3.61;17.92
77077;BME280;66003;52.286;104.306;2024-03-23T08:52:30;96449.00;;;3.67;17.28
77077;BME280;66003;52.286;104.306;2024-03-23T08:54:56;96456.72;;;3.74;17.49
77077;BME280;66003;52.286;104.306;2024-03-23T08:57:23;96451.31;;;3.84;17.28
77077;BME280;66003;52.286;104.306;2024-03-23T08:59:50;96444.38;;;3.83;17.46
77077;BME280;66003;52.286;104.306;2024-03-23T09:02:16;96453.53;;;3.72;17.40
77077;BME280;66003;52.286;104.306;2024-03-23T09:04:44;96453.53;;;3.72;17.49
77077;BME280;66003;52.286;104.306;2024-03-23T09:07:10;96449.59;;;3.59;17.48
77077;BME280;66003;52.286;104.306;2024-03-23T09:09:38;96444.66;;;3.76;17.17
77077;BME280;66003;52.286;104.306;2024-03-23T09:12:06;96443.97;;;3.61;17.27
77077;BME280;66003;52.286;104.306;2024-03-23T09:14:33;96444.66;;;3.32;17.21
77077;BME280;66003;52.286;104.306;2024-03-23T09:16:59;96442.28;;;3.15;17.63
77077;BME280;66003;52.286;104.306;2024-03-23T09:19:29;96443.88;;;3.27;17.29
77077;BME280;66003;52.286;104.306;2024-03-23T09:21:55;96445.13;;;3.49;17.24
77077;BME280;66003;52.286;104.306;2024-03-23T09:24:22;96446.97;;;3.49;17.42
77077;BME280;66003;52.286;104.306;2024-03-23T09:26:48;96445.34;;;3.53;17.08
77077;BME280;66003;52.286;104.306;2024-03-23T09:29:14;96443.19;;;3.55;16.90
77077;BME280;66003;52.286;104.306;2024-03-23T09:31:40;96434.44;;;3.44;16.75
77077;BME280;66003;52.286;104.306;2024-03-23T09:34:07;96425.09;;;3.42;16.99
77077;BME280;66003;52.286;104.306;2024-03-23T09:36:33;96419.22;;;3.45;17.11
77077;BME280;66003;52.286;104.306;2024-03-23T09:38:59;96423.22;;;3.42;17.17
77077;BME280;66003;52.286;104.306;2024-03-23T09:41:25;96425.97;;;3.17;17.52
77077;BME280;66003;52.286;104.306;2024-03-23T09:43:54;96436.91;;;3.36;17.09
77077;BME280;66003;52.286;104.306;2024-03-23T09:46:20;96419.00;;;3.31;17.31
77077;BME280;66003;52.286;104.306;2024-03-23T09:48:47;96423.59;;;3.21;17.10
77077;BME280;66003;52.286;104.306;2024-03-23T09:51:13;96418.47;;;3.34;17.65
77077;BME280;66003;52.286;104.306;2024-03-23T09:53:39;96419.31;;;3.25;17.48
77077;BME280;66003;52.286;104.306;2024-03-23T09:56:05;96418.25;;;3.26;17.24
77077;BME280;66003;52.286;104.306;2024-03-23T09:58:33;96417.09;;;3.42;17.61
77077;BME280;66003;52.286;104.306;2024-03-23T10:00:59;96420.03;;;3.40;17.45
77077;BME280;66003;52.286;104.306;2024-03-23T10:03:25;96420.81;;;3.41;17.61
77077;BME280;66003;52.286;104.306;2024-03-23T10:06:03;96425.09;;;3.42;17.77
77077;BME280;66003;52.286;104.306;2024-03-23T10:08:30;96418.41;;;3.44;17.78
77077;BME280;66003;52.286;104.306;2024-03-23T10:11:14;96423.81;;;3.34;17.64
77077;BME280;66003;52.286;104.306;2024-03-23T10:13:45;96416.41;;;3.21;17.62
77077;BME280;66003;52.286;104.306;2024-03-23T10:16:22;96420.41;;;3.08;18.00
77077;BME280;66003;52.286;104.306;2024-03-23T10:18:48;96417.81;;;2.93;17.96
77077;BME280;66003;52.286;104.306;2024-03-23T10:21:16;96413.03;;;2.90;18.35
77077;BME280;66003;52.286;104.306;2024-03-23T10:23:43;96411.47;;;2.74;18.35
77077;BME280;66003;52.286;104.306;2024-03-23T10:26:23;96404.78;;;2.76;18.27
77077;BME280;66003;52.286;104.306;2024-03-23T10:29:00;96405.59;;;2.72;18.19
77077;BME280;66003;52.286;104.306;2024-03-23T10:31:30;96418.97;;;2.57;18.08
77077;BME280;66003;52.286;104.306;2024-03-23T10:33:57;96400.03;;;2.58;18.36
77077;BME280;66003;52.286;104.306;2024-03-23T10:36:24;96406.19;;;2.54;18.24
77077;BME280;66003;52.286;104.306;2024-03-23T10:38:53;96401.69;;;2.39;18.82
77077;BME280;66003;52.286;104.306;2024-03-23T10:41:20;96400.06;;;2.38;18.77
77077;BME280;66003;52.286;104.306;2024-03-23T10:43:47;96400.34;;;2.26;18.65
77077;BME280;66003;52.286;104.306;2024-03-23T10:46:14;96394.22;;;2.41;19.06
77077;BME280;66003;52.286;104.306;2024-03-23T10:48:41;96399.03;;;2.29;19.16
77077;BME280;66003;52.286;104.306;2024-03-23T10:51:08;96399.78;;;2.45;18.91
77077;BME280;66003;52.286;104.306;2024-03-23T10:53:35;96396.59;;;2.32;19.02
77077;BME280;66003;52.286;104.306;2024-03-23T10:56:04;96391.81;;;2.24;18.66
77077;BME280;66003;52.286;104.306;2024-03-23T10:58:38;96396.91;;;2.11;19.13
77077;BME280;66003;52.286;104.306;2024-03-23T11:01:05;96392.09;;;2.13;19.04
77077;BME280;66003;52.286;104.306;2024-03-23T11:03:37;96393.72;;;2.09;19.16
77077;BME280;66003;52.286;104.306;2024-03-23T11:06:05;96394.22;;;2.11;19.11
77077;BME280;66003;52.286;104.306;2024-03-23T11:08:33;96392.63;;;2.10;19.15
77077;BME280;66003;52.286;104.306;2024-03-23T11:11:18;96395.28;;;2.10;19.33
77077;BME280;66003;52.286;104.306;2024-03-23T11:13:48;96392.13;;;2.02;19.23
77077;BME280;66003;52.286;104.306;2024-03-23T11:16:16;96390.50;;;1.86;19.67
77077;BME280;66003;52.286;104.306;2024-03-23T11:18:43;96399.59;;;1.95;19.20
77077;BME280;66003;52.286;104.306;2024-03-23T11:21:11;96394.78;;;1.92;19.47
77077;BME280;66003;52.286;104.306;2024-03-23T11:24:16;96405.44;;;1.82;19.58
77077;BME280;66003;52.286;104.306;2024-03-23T11:26:42;96404.09;;;1.80;19.39
77077;BME280;66003;52.286;104.306;2024-03-23T11:29:14;96404.91;;;1.80;19.32
77077;BME280;66003;52.286;104.306;2024-03-23T11:31:53;96413.94;;;1.74;19.66
77077;BME280;66003;52.286;104.306;2024-03-23T11:34:20;96413.41;;;1.67;20.16
77077;BME280;66003;52.286;104.306;2024-03-23T11:36:47;96413.69;;;1.71;20.03
77077;BME280;66003;52.286;104.306;2024-03-23T11:39:15;96421.16;;;1.68;19.95
77077;BME280;66003;52.286;104.306;2024-03-23T11:41:50;96409.41;;;1.59;19.94
77077;BME280;66003;52.286;104.306;2024-03-23T11:44:16;96424.63;;;1.84;19.48
77077;BME280;66003;52.286;104.306;2024-03-23T11:46:42;96415.56;;;1.70;19.89
77077;BME280;66003;52.286;104.306;2024-03-23T11:49:21;96426.75;;;1.77;19.75
77077;BME280;66003;52.286;104.306;2024-03-23T11:51:48;96423.03;;;1.73;19.68
77077;BME280;66003;52.286;104.306;2024-03-23T11:54:15;96423.28;;;1.72;19.94
77077;BME280;66003;52.286;104.306;2024-03-23T11:56:54;96421.44;;;1.72;19.78
77077;BME280;66003;52.286;104.306;2024-03-23T12:02:00;96430.19;;;1.67;20.16
77077;BME280;66003;52.286;104.306;2024-03-23T12:04:29;96433.13;;;1.66;20.23
77077;BME280;66003;52.286;104.306;2024-03-23T12:07:15;96437.66;;;1.71;20.44
77077;BME280;66003;52.286;104.306;2024-03-23T12:10:02;96437.91;;;1.64;20.16
77077;BME280;66003;52.286;104.306;2024-03-23T12:12:30;96432.59;;;1.69;20.06
77077;BME280;66003;52.286;104.306;2024-03-23T12:15:06;96442.19;;;1.70;19.77
77077;BME280;66003;52.286;104.306;2024-03-23T12:17:35;96444.59;;;1.66;19.78
77077;BME280;66003;52.286;104.306;2024-03-23T12:20:02;96444.84;;;1.65;19.99
77077;BME280;66003;52.286;104.306;2024-03-23T12:22:31;96454.97;;;1.68;19.69
77077;BME280;66003;52.286;104.306;2024-03-23T12:24:57;96444.06;;;1.69;19.70
77077;BME280;66003;52.286;104.306;2024-03-23T12:27:23;96449.91;;;1.77;19.85
77077;BME280;66003;52.286;104.306;2024-03-23T12:29:50;96445.94;;;1.69;19.78
77077;BME280;66003;52.286;104.306;2024-03-23T12:32:16;96454.47;;;1.71;19.98
77077;BME280;66003;52.286;104.306;2024-03-23T12:34:42;96446.69;;;1.64;19.62
77077;BME280;66003;52.286;104.306;2024-03-23T12:37:08;96454.13;;;1.52;19.86
77077;BME280;66003;52.286;104.306;2024-03-23T12:39:35;96451.22;;;1.49;19.75
77077;BME280;66003;52.286;104.306;2024-03-23T12:42:02;96456.25;;;1.45;19.99
77077;BME280;66003;52.286;104.306;2024-03-23T12:44:29;96451.72;;;1.51;20.25
77077;BME280;66003;52.286;104.306;2024-03-23T12:46:55;96446.94;;;1.38;20.36
77077;BME280;66003;52.286;104.306;2024-03-23T12:49:21;96447.44;;;1.35;20.45
77077;BME280;66003;52.286;104.306;2024-03-23T12:51:55;96454.53;;;1.19;20.68
77077;BME280;66003;52.286;104.306;2024-03-23T12:54:22;96454.25;;;1.10;20.98
77077;BME280;66003;52.286;104.306;2024-03-23T12:56:48;96457.16;;;1.09;20.75
77077;BME280;66003;52.286;104.306;2024-03-23T12:59:15;96461.09;;;0.96;21.19
77077;BME280;66003;52.286;104.306;2024-03-23T13:01:42;96461.81;;;0.81;20.89
77077;BME280;66003;52.286;104.306;2024-03-23T13:04:09;96466.03;;;0.72;21.27
77077;BME280;66003;52.286;104.306;2024-03-23T13:06:35;96461.38;;;0.52;21.79
77077;BME280;66003;52.286;104.306;2024-03-23T13:09:02;96462.69;;;0.50;22.12
77077;BME280;66003;52.286;104.306;2024-03-23T13:11:30;96461.34;;;0.47;22.39
77077;BME280;66003;52.286;104.306;2024-03-23T13:13:56;96466.09;;;0.45;22.53
77077;BME280;66003;52.286;104.306;2024-03-23T13:16:22;96463.44;;;0.40;22.68
77077;BME280;66003;52.286;104.306;2024-03-23T13:18:49;96469.25;;;0.37;23.00
77077;BME280;66003;52.286;104.306;2024-03-23T13:21:15;96469.53;;;0.41;22.58
77077;BME280;66003;52.286;104.306;2024-03-23T13:23:45;96472.47;;;0.44;22.76
77077;BME280;66003;52.286;104.306;2024-03-23T13:26:13;96480.25;;;0.51;22.38
77077;BME280;66003;52.286;104.306;2024-03-23T13:28:40;96470.91;;;0.48;22.49
77077;BME280;66003;52.286;104.306;2024-03-23T13:31:07;96476.25;;;0.48;22.67
77077;BME280;66003;52.286;104.306;2024-03-23T13:33:35;96476.50;;;0.47;22.98
77077;BME280;66003;52.286;104.306;2024-03-23T13:36:01;96479.69;;;0.49;22.92
77077;BME280;66003;52.286;104.306;2024-03-23T13:38:29;96482.34;;;0.49;23.45
77077;BME280;66003;52.286;104.306;2024-03-23T13:40:56;96483.97;;;0.50;23.75
77077;BME280;66003;52.286;104.306;2024-03-23T13:43:23;96483.72;;;0.51;23.90
77077;BME280;66003;52.286;104.306;2024-03-23T13:45:53;96491.19;;;0.54;23.44
77077;BME280;66003;52.286;104.306;2024-03-23T13:48:20;96483.22;;;0.54;23.50